Time;durP1;ratioP1;P1;durP2;ratioP2;P2;SDS_P1;SDS_P2;PMS_P1;PMS_P2;Temp;Humidity;BMP_temperature;BMP_pressure;BME280_temperature;BME280_humidity;BME280_pressure;Samples;Min_cycle;Max_cycle;Signal;HPM_P1;HPM_P2
2021/11/30 00:00:48;;;;;;;6.57;4.00;;;;;;;11.40;56.29;97983.78;5050586;28;20090;-84
2021/11/30 00:03:14;;;;;;;4.68;3.33;;;;;;;10.82;56.49;97883.03;5051872;28;20570;-84
2021/11/30 00:05:39;;;;;;;4.20;2.58;;;;;;;11.49;55.65;97986.94;5051825;28;20104;-84
2021/11/30 00:08:05;;;;;;;4.03;2.63;;;;;;;11.69;55.60;98016.56;5050530;28;20476;-85
2021/11/30 00:10:43;;;;;;;5.07;2.70;;;;;;;11.32;55.35;97954.22;5051854;28;20061;-84
2021/11/30 00:13:09;;;;;;;5.57;2.90;;;;;;;9.95;55.24;97712.63;5051730;28;20417;-84
2021/11/30 00:15:35;;;;;;;5.50;3.13;;;;;;;11.80;55.43;97999.19;5050453;28;20033;-84
2021/11/30 00:18:00;;;;;;;5.43;3.00;;;;;;;10.96;55.38;97839.63;5066989;28;20047;-84
2021/11/30 00:20:25;;;;;;;6.85;3.70;;;;;;;10.79;55.18;97791.09;5066976;28;20078;-85
2021/11/30 00:22:51;;;;;;;3.85;2.30;;;;;;;11.79;55.12;97952.63;5051704;28;20035;-84
2021/11/30 00:25:16;;;;;;;5.10;2.60;;;;;;;12.08;54.92;97988.84;5051596;28;20102;-85
2021/11/30 00:27:42;;;;;;;3.80;2.70;;;;;;;11.77;54.86;97944.91;5066800;28;20036;-85
2021/11/30 00:30:07;;;;;;;5.25;2.95;;;;;;;11.33;55.01;97879.19;5051484;28;20029;-84
2021/11/30 00:32:33;;;;;;;5.68;3.30;;;;;;;10.72;54.42;97748.94;5051372;28;20104;-85
2021/11/30 00:34:58;;;;;;;6.30;3.17;;;;;;;11.90;55.30;97920.16;5051466;28;20391;-84
2021/11/30 00:37:24;;;;;;;6.10;2.95;;;;;;;11.95;54.80;97917.63;5051493;28;20113;-84
2021/11/30 00:39:49;;;;;;;4.72;2.30;;;;;;;11.72;54.65;97883.13;5050166;28;20722;-83
2021/11/30 00:42:15;;;;;;;4.55;2.50;;;;;;;11.79;54.88;97897.09;5051117;28;20033;-84
2021/11/30 00:44:42;;;;;;;7.47;3.10;;;;;;;11.58;54.96;97861.38;5051035;28;20032;-84
2021/11/30 00:47:16;;;;;;;4.15;2.13;;;;;;;11.42;54.67;97801.22;5050460;28;20035;-84
2021/11/30 00:49:42;;;;;;;4.55;2.10;;;;;;;12.33;54.66;97929.66;5051108;28;20064;-84
2021/11/30 00:52:08;;;;;;;4.47;2.42;;;;;;;12.00;54.75;97874.63;5051208;28;20025;-84
2021/11/30 00:54:33;;;;;;;5.90;2.63;;;;;;;12.05;54.69;97867.63;5051171;28;20017;-84
2021/11/30 00:57:00;;;;;;;4.25;2.10;;;;;;;11.81;54.58;97836.84;5066207;28;20053;-84
2021/11/30 00:59:29;;;;;;;4.28;2.03;;;;;;;12.39;54.15;97921.59;5049691;28;20448;-84
2021/11/30 01:01:58;;;;;;;5.90;2.15;;;;;;;11.28;54.16;97744.31;5051204;28;20025;-84
2021/11/30 01:04:24;;;;;;;4.35;2.40;;;;;;;12.03;54.55;97882.91;5049797;28;20060;-84
2021/11/30 01:06:50;;;;;;;3.92;2.03;;;;;;;12.41;54.28;97945.19;5051310;28;20052;-84
2021/11/30 01:09:16;;;;;;;4.07;2.20;;;;;;;11.95;54.07;97877.94;5051081;28;20050;-84
2021/11/30 01:11:42;;;;;;;5.70;2.25;;;;;;;12.18;54.51;97916.06;5051189;28;20033;-84
2021/11/30 01:14:08;;;;;;;5.53;2.28;;;;;;;12.16;54.36;97913.63;5051000;28;20025;-84
2021/11/30 01:16:35;;;;;;;4.07;2.13;;;;;;;12.33;54.28;97975.44;5051049;28;20029;-84
2021/11/30 01:19:03;;;;;;;2.45;1.60;;;;;;;12.07;54.33;97896.50;5050886;28;20482;-84
2021/11/30 01:21:28;;;;;;;3.35;1.90;;;;;;;11.78;54.54;97842.59;5049543;28;20040;-85
2021/11/30 01:23:54;;;;;;;3.65;0.90;;;;;;;12.08;54.46;97900.75;5050713;28;20025;-84
2021/11/30 01:26:19;;;;;;;6.68;1.60;;;;;;;11.89;54.40;97897.38;5066313;28;20033;-84
2021/11/30 01:28:44;;;;;;;3.17;1.50;;;;;;;11.93;54.33;97924.97;5050860;28;20516;-85
2021/11/30 01:31:10;;;;;;;5.25;1.70;;;;;;;11.52;54.35;97841.13;5049576;28;20035;-85
2021/11/30 01:33:36;;;;;;;5.75;1.80;;;;;;;11.05;54.92;97796.03;5050802;28;20490;-85
2021/11/30 01:36:03;;;;;;;3.83;2.20;;;;;;;11.48;54.64;97836.50;5050582;28;20052;-85
2021/11/30 01:38:31;;;;;;;7.50;3.08;;;;;;;11.54;54.85;97843.53;5049229;28;20029;-85
2021/11/30 01:40:57;;;;;;;11.25;2.70;;;;;;;11.26;55.01;97793.94;5050562;28;20025;-85
2021/11/30 01:43:27;;;;;;;9.90;3.40;;;;;;;11.11;55.84;97795.13;5050717;28;20029;-85
2021/11/30 01:50:53;;;;;;;7.00;2.63;;;;;;;11.74;57.00;97838.75;5050609;28;20037;-83
2021/11/30 01:53:19;;;;;;;9.45;4.07;;;;;;;11.11;57.50;97746.78;5050569;28;20108;-83
2021/11/30 01:55:46;;;;;;;9.45;4.88;;;;;;;10.97;57.19;97727.69;5050598;28;20033;-84
2021/11/30 01:58:13;;;;;;;10.05;4.57;;;;;;;11.80;57.94;97834.44;5049620;28;20033;-84
2021/11/30 02:00:40;;;;;;;12.52;4.38;;;;;;;11.72;58.37;97815.19;5054339;28;20025;-84
2021/11/30 02:03:06;;;;;;;7.65;3.78;;;;;;;10.15;58.55;97550.53;5054242;28;20504;-84
2021/11/30 02:05:38;;;;;;;7.30;3.38;;;;;;;11.84;59.17;97836.41;5054150;28;20017;-84
2021/11/30 02:08:04;;;;;;;5.63;2.33;;;;;;;11.85;59.54;97826.63;5053859;28;20055;-84
2021/11/30 02:10:32;;;;;;;6.78;2.58;;;;;;;11.87;59.78;97814.78;5053932;28;20425;-84
2021/11/30 02:12:58;;;;;;;4.53;1.98;;;;;;;11.88;59.29;97818.25;5054105;28;20056;-83
2021/11/30 02:15:26;;;;;;;4.72;1.50;;;;;;;11.43;59.76;97761.38;5052541;28;20611;-84
2021/11/30 02:17:58;;;;;;;3.80;1.67;;;;;;;11.26;60.24;97731.34;5053709;28;20025;-85
2021/11/30 02:20:24;;;;;;;5.47;1.83;;;;;;;11.82;60.40;97787.41;5053596;28;20025;-85
2021/11/30 02:22:54;;;;;;;6.13;2.05;;;;;;;11.30;60.70;97707.91;5053590;28;20168;-85
2021/11/30 02:25:21;;;;;;;5.45;1.98;;;;;;;11.52;61.24;97737.25;5052417;28;20039;-85
2021/11/30 02:27:48;;;;;;;3.55;1.77;;;;;;;11.85;61.52;97794.91;5053749;28;20465;-85
2021/11/30 02:30:14;;;;;;;6.05;2.05;;;;;;;11.30;62.04;97687.59;5053680;28;20494;-84
2021/11/30 02:32:39;;;;;;;6.82;2.28;;;;;;;11.86;62.31;97762.13;5053645;28;20032;-84
2021/11/30 02:35:05;;;;;;;5.18;1.98;;;;;;;11.23;62.02;97671.03;5053611;28;20063;-84
2021/11/30 02:37:38;;;;;;;8.15;2.10;;;;;;;11.89;62.12;97751.09;5053395;28;20102;-83
2021/11/30 02:40:05;;;;;;;6.05;2.42;;;;;;;11.53;63.45;97709.78;5053526;28;20029;-82
2021/11/30 02:42:30;;;;;;;6.00;2.30;;;;;;;11.59;63.55;97711.50;5051898;28;20118;-82
2021/11/30 02:44:56;;;;;;;8.80;2.45;;;;;;;11.44;64.12;97635.31;5053288;28;20075;-81
2021/11/30 02:47:24;;;;;;;6.03;2.35;;;;;;;11.32;64.34;97587.78;5051995;28;20043;-82
2021/11/30 02:49:49;;;;;;;6.60;2.25;;;;;;;11.24;64.89;97593.41;5053344;28;20025;-84
2021/11/30 02:52:18;;;;;;;8.93;3.55;;;;;;;11.60;66.00;97617.97;5053174;28;20094;-84
2021/11/30 02:54:47;;;;;;;7.28;2.70;;;;;;;11.78;65.54;97629.22;5068440;28;20535;-85
2021/11/30 02:57:15;;;;;;;6.72;1.90;;;;;;;11.67;66.00;97608.88;5052957;28;20395;-84
2021/11/30 02:59:43;;;;;;;4.75;1.75;;;;;;;11.04;66.03;97492.56;5068322;28;20029;-83
2021/11/30 03:02:14;;;;;;;4.18;1.73;;;;;;;11.69;66.41;97603.34;5053494;28;20104;-84
2021/11/30 03:04:42;;;;;;;3.23;1.40;;;;;;;10.19;66.83;97393.47;5068555;28;20025;-83
2021/11/30 03:07:18;;;;;;;4.30;1.55;;;;;;;11.57;67.34;97634.28;5052954;28;20078;-84
2021/11/30 03:09:43;;;;;;;6.55;1.88;;;;;;;10.51;67.65;97485.53;5052584;28;20082;-84
2021/11/30 03:12:09;;;;;;;3.00;1.40;;;;;;;10.14;67.17;97432.91;5051508;28;20021;-84
2021/11/30 03:14:36;;;;;;;3.53;1.60;;;;;;;10.89;67.77;97548.47;5052894;28;20677;-84
2021/11/30 03:17:02;;;;;;;5.63;2.50;;;;;;;11.38;67.75;97593.97;5052916;28;20085;-85
2021/11/30 03:19:29;;;;;;;3.90;2.15;;;;;;;11.42;67.89;97587.19;5052569;28;20025;-84
2021/11/30 03:21:56;;;;;;;3.72;2.40;;;;;;;11.00;67.74;97517.81;5068134;28;20116;-84
2021/11/30 03:24:21;;;;;;;3.10;1.95;;;;;;;11.17;67.61;97561.00;5052925;28;20501;-85
2021/11/30 03:26:47;;;;;;;4.68;2.25;;;;;;;11.24;68.05;97560.91;5052480;28;20158;-84
2021/11/30 03:29:13;;;;;;;9.35;2.50;;;;;;;10.89;67.98;97498.31;5052769;28;20086;-85
2021/11/30 03:34:17;;;;;;;4.65;1.60;;;;;;;11.54;67.74;97571.31;5052602;28;20047;-85
2021/11/30 03:36:45;;;;;;;4.90;1.88;;;;;;;11.16;67.85;97482.00;5052512;28;20033;-85
2021/11/30 03:39:14;;;;;;;3.30;1.48;;;;;;;10.72;67.68;97434.84;5052304;28;20036;-85
2021/11/30 03:41:41;;;;;;;6.57;2.20;;;;;;;11.20;68.03;97489.22;5052277;28;20505;-85
2021/11/30 03:44:07;;;;;;;4.63;1.80;;;;;;;11.47;67.94;97547.66;5050700;28;20022;-85
2021/11/30 03:46:34;;;;;;;8.13;3.05;;;;;;;10.68;68.47;97420.50;5052198;28;20029;-85
2021/11/30 03:49:04;;;;;;;6.03;2.33;;;;;;;11.41;68.46;97572.38;5050886;28;20033;-85
2021/11/30 03:51:29;;;;;;;7.43;2.90;;;;;;;11.03;68.57;97497.03;5067476;28;20025;-85
2021/11/30 03:53:55;;;;;;;5.28;2.63;;;;;;;11.18;68.76;97528.28;5052067;28;20098;-85
2021/11/30 03:56:20;;;;;;;8.13;2.70;;;;;;;10.95;68.97;97473.63;5050630;28;20733;-85
2021/11/30 03:58:46;;;;;;;6.38;3.10;;;;;;;11.10;68.19;97491.63;5051851;28;20025;-85
2021/11/30 04:01:11;;;;;;;6.97;2.47;;;;;;;11.05;68.64;97494.97;5051954;28;20040;-84
2021/11/30 04:03:38;;;;;;;6.28;2.88;;;;;;;9.74;68.40;97297.50;5067352;28;20116;-85
2021/11/30 04:06:04;;;;;;;4.57;2.42;;;;;;;11.11;68.46;97507.25;5050732;28;20033;-85
2021/11/30 04:08:31;;;;;;;8.10;2.80;;;;;;;10.62;68.32;97413.50;5051881;28;20036;-85
2021/11/30 04:10:56;;;;;;;4.90;2.90;;;;;;;10.79;69.40;97438.16;5051813;28;20048;-85
2021/11/30 04:13:22;;;;;;;4.32;2.90;;;;;;;11.01;68.79;97462.13;5051552;28;20106;-85
2021/11/30 04:15:48;;;;;;;5.47;3.47;;;;;;;10.69;68.44;97402.81;5051597;28;20414;-85
2021/11/30 04:18:13;;;;;;;8.07;4.22;;;;;;;11.02;69.35;97460.28;5050398;28;20029;-85
2021/11/30 04:20:38;;;;;;;6.75;3.38;;;;;;;10.85;68.98;97435.63;5051272;28;20029;-85
2021/11/30 04:23:04;;;;;;;7.00;4.10;;;;;;;11.35;68.89;97531.81;5050018;28;20028;-85
2021/11/30 04:25:30;;;;;;;7.28;4.40;;;;;;;11.16;68.67;97511.88;5067005;28;20025;-85
2021/11/30 04:27:55;;;;;;;4.90;3.28;;;;;;;10.70;69.02;97447.47;5051605;28;20055;-85
2021/11/30 04:30:21;;;;;;;13.05;8.27;;;;;;;10.96;69.07;97498.19;5051440;28;20111;-85
2021/11/30 04:32:46;;;;;;;27.60;18.98;;;;;;;11.34;69.35;97559.28;5051343;28;20032;-85
2021/11/30 04:35:12;;;;;;;39.05;26.00;;;;;;;10.86;69.15;97493.47;5051272;28;20080;-85
2021/11/30 04:37:38;;;;;;;44.10;30.92;;;;;;;11.35;69.19;97563.53;5051143;28;20100;-85
2021/11/30 04:40:06;;;;;;;29.30;19.13;;;;;;;11.33;69.07;97560.31;5051262;28;20023;-84
2021/11/30 04:42:32;;;;;;;24.92;17.13;;;;;;;10.98;69.48;97520.69;5051347;28;20021;-84
2021/11/30 04:45:05;;;;;;;15.00;9.90;;;;;;;10.89;69.55;97490.38;5051457;28;20082;-84
2021/11/30 04:47:34;;;;;;;12.45;8.48;;;;;;;11.27;69.43;97542.75;5051142;28;20021;-84
2021/11/30 04:50:03;;;;;;;15.65;10.25;;;;;;;11.30;69.87;97549.41;5051786;28;20030;-84
2021/11/30 04:52:32;;;;;;;17.50;10.55;;;;;;;10.97;69.48;97505.88;5051282;28;20494;-84
2021/11/30 04:54:59;;;;;;;14.98;10.48;;;;;;;11.32;69.29;97557.91;5051134;28;20110;-85
2021/11/30 04:57:25;;;;;;;18.20;11.65;;;;;;;10.58;69.77;97457.22;5049756;28;20383;-84
2021/11/30 04:59:51;;;;;;;24.35;17.40;;;;;;;11.23;69.40;97607.63;5051262;28;20032;-85
2021/11/30 05:02:16;;;;;;;17.55;14.80;;;;;;;10.70;68.57;97616.38;5051148;28;20056;-85
2021/11/30 05:04:42;;;;;;;22.15;18.23;;;;;;;10.52;67.40;97629.63;5050929;28;20104;-84
2021/11/30 05:07:09;;;;;;;23.80;20.50;;;;;;;9.79;66.75;97584.88;5049642;28;20028;-85
2021/11/30 05:09:35;;;;;;;28.42;22.52;;;;;;;9.93;66.66;97635.59;5050958;28;20025;-83
2021/11/30 05:12:01;;;;;;;22.13;19.73;;;;;;;8.99;66.66;97510.34;5051084;28;20036;-84
2021/11/30 05:14:27;;;;;;;20.17;18.02;;;;;;;9.56;66.59;97602.13;5051097;28;20029;-84
2021/11/30 05:16:52;;;;;;;20.50;18.30;;;;;;;9.65;66.40;97636.09;5051070;28;20079;-83
2021/11/30 05:19:17;;;;;;;19.45;17.42;;;;;;;8.80;66.10;97536.59;5050904;28;20033;-83
2021/11/30 05:21:43;;;;;;;18.98;17.00;;;;;;;9.57;66.33;97652.97;5050941;28;20532;-84
2021/11/30 05:24:10;;;;;;;17.52;15.45;;;;;;;9.49;66.16;97648.81;5050873;28;20410;-83
2021/11/30 05:26:36;;;;;;;17.38;15.48;;;;;;;8.69;66.12;97560.97;5050911;28;20039;-83
2021/11/30 05:29:03;;;;;;;16.92;15.20;;;;;;;9.41;66.01;97651.72;5050904;28;20033;-83
2021/11/30 05:31:29;;;;;;;15.60;13.45;;;;;;;9.35;66.06;97657.84;5051006;28;20025;-84
2021/11/30 05:33:56;;;;;;;15.52;13.27;;;;;;;8.79;66.10;97602.59;5052515;28;20180;-84
2021/11/30 05:36:21;;;;;;;15.60;13.82;;;;;;;9.26;66.32;97674.94;5054766;28;20037;-83
2021/11/30 05:38:48;;;;;;;16.55;14.82;;;;;;;9.26;66.53;97677.56;5054778;28;20021;-84
2021/11/30 05:41:14;;;;;;;17.33;14.75;;;;;;;8.93;66.23;97653.34;5054769;28;20021;-83
2021/11/30 05:43:39;;;;;;;16.92;14.30;;;;;;;8.37;66.84;97581.22;5053228;28;20036;-84
2021/11/30 05:46:06;;;;;;;15.10;12.68;;;;;;;8.45;66.57;97609.09;5053367;28;20029;-84
2021/11/30 05:48:32;;;;;;;16.50;14.80;;;;;;;8.66;66.39;97671.91;5052842;28;20501;-85
2021/11/30 05:50:57;;;;;;;14.32;12.65;;;;;;;8.63;67.19;97679.41;5054276;28;20032;-84
2021/11/30 05:53:23;;;;;;;15.60;13.15;;;;;;;8.75;67.02;97709.28;5054303;28;20114;-83
2021/11/30 05:55:53;;;;;;;17.00;14.30;;;;;;;9.02;67.27;97741.53;5069573;28;20020;-85
2021/11/30 05:58:19;;;;;;;16.05;12.15;;;;;;;8.34;66.83;97647.41;5054451;28;20047;-84
2021/11/30 06:00:45;;;;;;;13.15;11.38;;;;;;;7.36;67.61;97523.22;5054353;28;20532;-86
2021/11/30 06:05:54;;;;;;;12.10;9.63;;;;;;;8.21;67.72;97715.78;5054239;28;20043;-84
2021/11/30 06:08:20;;;;;;;10.82;9.35;;;;;;;8.49;67.66;97755.75;5069415;28;20021;-85
2021/11/30 06:10:46;;;;;;;10.10;8.63;;;;;;;8.62;68.10;97778.56;5054213;28;20032;-85
2021/11/30 06:13:11;;;;;;;7.47;5.10;;;;;;;7.67;67.80;97632.84;5054002;28;20428;-84
2021/11/30 06:15:37;;;;;;;4.80;3.85;;;;;;;7.91;67.14;97699.66;5053831;28;20029;-85
2021/11/30 06:18:03;;;;;;;2.88;2.58;;;;;;;8.39;67.32;97799.28;5052796;28;20147;-84
2021/11/30 06:20:29;;;;;;;3.88;1.80;;;;;;;8.39;65.99;97857.94;5052552;28;20471;-78
2021/11/30 06:22:54;;;;;;;2.28;1.73;;;;;;;7.82;65.95;97785.78;5053975;28;20460;-78
2021/11/30 06:25:19;;;;;;;3.13;1.42;;;;;;;7.74;66.28;97804.38;5052736;28;20025;-78
2021/11/30 06:27:45;;;;;;;3.15;1.60;;;;;;;7.75;65.76;97815.69;5053637;28;20041;-78
2021/11/30 06:30:12;;;;;;;1.98;1.40;;;;;;;7.31;66.33;97782.91;5053514;28;20029;-78
2021/11/30 06:32:37;;;;;;;2.72;1.60;;;;;;;7.78;66.68;97880.97;5052298;28;20027;-78
2021/11/30 06:35:04;;;;;;;1.52;1.20;;;;;;;7.79;66.22;97906.22;5053655;28;20104;-78
2021/11/30 06:37:30;;;;;;;4.22;1.60;;;;;;;7.24;66.05;97839.84;5053464;28;20033;-79
2021/11/30 06:39:57;;;;;;;1.35;1.25;;;;;;;7.03;67.12;97872.28;5053609;28;20515;-78
2021/11/30 06:42:23;;;;;;;2.63;1.45;;;;;;;7.28;66.94;97909.31;5053612;28;20052;-78
2021/11/30 06:44:48;;;;;;;3.00;2.47;;;;;;;6.99;67.34;97903.34;5052359;28;20036;-79
2021/11/30 06:47:15;;;;;;;1.85;1.58;;;;;;;7.37;67.51;97947.50;5053410;28;20033;-79
2021/11/30 06:49:40;;;;;;;2.85;1.35;;;;;;;7.12;67.14;97930.66;5053383;28;20509;-78
2021/11/30 06:52:06;;;;;;;2.33;1.50;;;;;;;7.23;67.41;97964.22;5053315;28;20048;-78
2021/11/30 06:54:32;;;;;;;4.90;1.40;;;;;;;6.93;67.09;97914.63;5049002;28;20112;-78
2021/11/30 06:56:57;;;;;;;1.90;1.70;;;;;;;7.34;67.00;97984.66;5032576;28;20100;-79
2021/11/30 06:59:28;;;;;;;1.50;1.33;;;;;;;7.03;67.95;98018.41;5046715;28;20043;-79
2021/11/30 07:01:54;;;;;;;2.60;1.48;;;;;;;6.49;67.97;97925.44;5047266;28;20023;-78
2021/11/30 07:04:21;;;;;;;3.75;1.40;;;;;;;6.67;67.87;97951.97;5040227;28;20025;-79
2021/11/30 07:07:08;;;;;;;1.92;1.60;;;;;;;6.40;68.27;97946.75;5042850;28;20025;-78
2021/11/30 07:14:47;;;;;;;2.58;1.40;;;;;;;6.70;67.88;98079.31;5043190;28;20139;-77
2021/11/30 07:17:13;;;;;;;1.55;1.42;;;;;;;6.68;67.86;98037.53;5043939;28;20092;-78
2021/11/30 07:19:38;;;;;;;2.50;1.75;;;;;;;6.95;67.75;98062.16;5036359;28;20013;-78
2021/11/30 07:22:04;;;;;;;2.63;1.95;;;;;;;6.53;67.63;97994.84;5052585;28;20110;-78
2021/11/30 07:24:29;;;;;;;2.42;2.15;;;;;;;6.22;67.54;97958.50;5063054;28;20028;-78
2021/11/30 07:26:54;;;;;;;3.50;2.25;;;;;;;6.72;67.72;98077.31;5053212;28;20025;-78
2021/11/30 07:29:20;;;;;;;2.67;2.00;;;;;;;5.85;66.73;97927.28;5052314;28;20024;-77
2021/11/30 07:31:45;;;;;;;4.63;3.20;;;;;;;6.27;67.50;98028.69;5052498;28;20031;-78
2021/11/30 07:34:11;;;;;;;5.10;3.38;;;;;;;6.43;67.47;98043.34;5039992;28;20033;-78
2021/11/30 07:36:37;;;;;;;4.40;3.03;;;;;;;6.89;66.44;98115.41;5044022;28;20052;-78
2021/11/30 07:39:03;;;;;;;3.20;2.50;;;;;;;6.85;66.80;98105.47;5052306;28;20500;-77
2021/11/30 07:41:30;;;;;;;2.08;1.60;;;;;;;6.98;66.13;98121.31;5049309;28;20037;-77
2021/11/30 07:43:56;;;;;;;2.13;1.73;;;;;;;5.78;65.68;97935.06;5036225;28;20092;-78
2021/11/30 07:46:21;;;;;;;2.63;2.28;;;;;;;6.99;65.77;98136.88;5051004;28;20036;-78
2021/11/30 07:48:47;;;;;;;2.78;2.25;;;;;;;6.50;65.39;98044.22;5035380;28;20032;-77
2021/11/30 07:51:16;;;;;;;3.15;2.65;;;;;;;6.63;65.60;98081.88;5043200;28;20161;-78
2021/11/30 07:53:44;;;;;;;2.63;2.20;;;;;;;7.03;64.96;98132.06;5035016;28;20040;-77
2021/11/30 07:56:10;;;;;;;6.22;2.45;;;;;;;6.86;64.88;98100.03;5033523;28;20025;-78
2021/11/30 07:58:35;;;;;;;4.32;3.25;;;;;;;5.96;63.95;97966.13;5032569;28;20418;-77
2021/11/30 08:01:01;;;;;;;2.60;1.52;;;;;;;6.41;63.34;98046.16;5037013;28;20029;-78
2021/11/30 08:03:27;;;;;;;3.15;1.90;;;;;;;6.17;62.82;98008.06;5047733;28;20029;-78
2021/11/30 08:05:52;;;;;;;6.80;1.60;;;;;;;7.04;63.08;98131.06;5039450;28;20026;-77
2021/11/30 08:08:18;;;;;;;3.60;1.98;;;;;;;6.71;62.13;98101.13;5032698;28;20036;-78
2021/11/30 08:10:44;;;;;;;2.33;1.60;;;;;;;7.16;62.00;98144.47;5030895;28;20034;-77
2021/11/30 08:13:10;;;;;;;3.13;2.25;;;;;;;6.56;61.22;98038.22;5032247;28;20029;-77
2021/11/30 08:15:37;;;;;;;4.82;3.78;;;;;;;7.04;61.64;98136.31;5031235;28;20033;-77
2021/11/30 08:18:04;;;;;;;2.53;2.00;;;;;;;7.46;60.53;98166.13;5030351;28;20017;-78
2021/11/30 08:20:30;;;;;;;2.05;1.38;;;;;;;7.32;60.30;98186.19;5037799;28;20418;-78
2021/11/30 08:22:56;;;;;;;2.80;1.98;;;;;;;7.14;60.62;98177.97;5032926;28;20116;-77
2021/11/30 08:25:21;;;;;;;3.35;2.13;;;;;;;7.06;60.41;98170.22;5032071;28;20557;-77
2021/11/30 08:27:47;;;;;;;2.40;1.70;;;;;;;7.20;60.45;98183.28;5030542;28;20482;-77
2021/11/30 08:30:12;;;;;;;2.67;1.92;;;;;;;7.01;59.98;98170.81;5037298;28;20422;-78
2021/11/30 08:32:40;;;;;;;3.47;2.38;;;;;;;7.40;60.36;98217.56;5049854;28;20043;-77
2021/11/30 08:35:06;;;;;;;4.25;3.03;;;;;;;7.35;59.59;98209.44;5038176;28;20036;-78
2021/11/30 08:37:32;;;;;;;2.33;1.85;;;;;;;6.99;59.47;98171.00;5044460;28;20025;-77
2021/11/30 08:39:58;;;;;;;2.10;1.90;;;;;;;7.28;59.11;98213.84;5039262;28;20027;-77
2021/11/30 08:42:23;;;;;;;3.28;2.30;;;;;;;6.69;59.46;98111.81;5038009;28;20056;-77
2021/11/30 08:44:51;;;;;;;3.72;1.85;;;;;;;7.25;58.87;98217.66;5056574;28;20493;-78
2021/11/30 08:47:19;;;;;;;5.80;3.40;;;;;;;6.62;58.61;98142.38;5042807;28;20044;-78
2021/11/30 08:49:45;;;;;;;4.43;3.20;;;;;;;7.36;58.83;98266.22;5041640;28;20030;-79
2021/11/30 08:52:17;;;;;;;3.47;2.67;;;;;;;7.42;57.84;98289.09;5042427;28;20043;-78
2021/11/30 08:54:44;;;;;;;5.20;3.50;;;;;;;6.93;57.96;98228.66;5039398;28;20021;-78
2021/11/30 08:57:10;;;;;;;5.72;2.70;;;;;;;6.75;56.87;98210.72;5030706;28;20034;-79
2021/11/30 08:59:37;;;;;;;5.60;2.30;;;;;;;6.95;56.85;98251.09;5029719;28;20087;-78
2021/11/30 09:02:03;;;;;;;4.95;2.60;;;;;;;7.12;57.38;98292.84;5031854;28;20112;-83
2021/11/30 09:04:29;;;;;;;4.65;2.97;;;;;;;6.93;56.93;98250.47;5041209;28;20107;-86
2021/11/30 09:06:54;;;;;;;5.28;2.55;;;;;;;7.27;56.62;98298.84;5040339;28;20485;-84
2021/11/30 09:09:20;;;;;;;4.18;2.50;;;;;;;6.76;56.32;98253.50;5034011;28;20032;-86
2021/11/30 09:11:46;;;;;;;3.67;2.42;;;;;;;6.66;56.57;98228.34;5041541;28;20033;-86
2021/11/30 09:14:12;;;;;;;3.30;2.90;;;;;;;7.16;56.29;98292.28;5046502;28;20109;-88
2021/11/30 09:16:37;;;;;;;2.85;2.35;;;;;;;6.43;56.60;98190.16;5038903;28;20022;-87
2021/11/30 09:19:04;;;;;;;3.67;3.13;;;;;;;6.97;55.83;98267.47;5042511;28;20021;-84
2021/11/30 09:21:30;;;;;;;3.47;2.08;;;;;;;6.75;55.54;98262.38;5043427;28;20025;-86
2021/11/30 09:23:56;;;;;;;2.75;2.22;;;;;;;7.16;55.20;98336.09;5039788;28;20514;-77
2021/11/30 09:26:22;;;;;;;5.20;2.17;;;;;;;6.41;55.16;98206.09;5057059;28;20111;-78
2021/11/30 09:28:48;;;;;;;2.72;2.08;;;;;;;6.77;55.00;98239.38;5054086;28;20493;-77
2021/11/30 09:31:15;;;;;;;2.92;2.28;;;;;;;6.80;54.53;98276.56;5038430;28;20040;-77
2021/11/30 09:33:41;;;;;;;7.93;3.05;;;;;;;7.15;53.94;98313.47;5059736;28;20187;-77
2021/11/30 09:36:08;;;;;;;5.25;2.60;;;;;;;7.06;54.44;98301.44;5059060;28;20163;-78
2021/11/30 09:38:35;;;;;;;5.20;2.55;;;;;;;7.16;53.25;98313.28;5061651;28;20067;-77
2021/11/30 09:41:02;;;;;;;4.25;3.22;;;;;;;7.16;53.68;98320.34;5053932;28;20356;-78
2021/11/30 09:43:29;;;;;;;3.55;2.78;;;;;;;6.57;53.52;98284.53;5047187;28;20063;-78
2021/11/30 09:45:56;;;;;;;3.15;2.05;;;;;;;6.83;53.06;98288.50;5060730;28;20060;-79
2021/11/30 09:48:23;;;;;;;2.67;2.30;;;;;;;6.52;52.96;98262.47;5042307;28;20033;-77
2021/11/30 09:50:48;;;;;;;3.97;2.50;;;;;;;6.23;53.33;98219.59;5038140;28;20032;-78
2021/11/30 09:53:15;;;;;;;3.30;2.90;;;;;;;7.10;52.39;98371.75;5044198;28;20528;-77
2021/11/30 09:55:42;;;;;;;3.42;2.72;;;;;;;6.90;53.28;98358.41;5046080;28;20021;-77
2021/11/30 09:58:08;;;;;;;4.43;3.42;;;;;;;6.56;53.08;98289.97;5059032;28;20031;-77
2021/11/30 10:00:36;;;;;;;4.32;2.83;;;;;;;6.47;52.88;98276.13;5062387;28;20032;-77
2021/11/30 10:03:02;;;;;;;3.03;2.50;;;;;;;7.11;52.45;98370.75;5046445;28;20047;-78
2021/11/30 10:05:29;;;;;;;3.35;2.60;;;;;;;7.04;52.65;98364.63;5047023;28;20525;-79
2021/11/30 10:07:56;;;;;;;2.97;2.20;;;;;;;6.27;52.87;98227.91;5047851;28;20091;-78
2021/11/30 10:10:28;;;;;;;5.40;3.70;;;;;;;6.45;51.96;98306.97;5089435;28;20469;-79
2021/11/30 10:13:10;;;;;;;5.22;3.50;;;;;;;6.64;52.62;98318.72;5076529;28;20125;-78
2021/11/30 10:15:45;;;;;;;4.72;3.97;;;;;;;7.17;52.58;98416.47;5042734;28;20086;-78
2021/11/30 10:18:24;;;;;;;3.55;3.20;;;;;;;6.97;52.40;98382.91;5052644;28;20493;-78
2021/11/30 10:21:17;;;;;;;4.47;3.22;;;;;;;7.26;51.52;98418.78;5045570;28;20028;-77
2021/11/30 10:23:51;;;;;;;3.65;2.90;;;;;;;7.30;51.74;98398.22;5050749;28;20157;-86
2021/11/30 10:26:23;;;;;;;6.57;3.67;;;;;;;6.31;51.09;98287.63;5048818;28;20057;-84
2021/11/30 10:28:58;;;;;;;7.72;3.40;;;;;;;6.92;51.02;98358.22;5034621;28;20025;-84
2021/11/30 10:31:29;;;;;;;7.18;3.67;;;;;;;7.12;51.72;98416.19;5051500;28;20098;-86
2021/11/30 10:33:55;;;;;;;3.58;2.33;;;;;;;7.07;52.25;98401.00;5034283;28;20383;-85
2021/11/30 10:36:21;;;;;;;4.20;3.47;;;;;;;7.36;51.78;98428.19;5037982;28;20462;-82
2021/11/30 10:38:47;;;;;;;4.88;3.72;;;;;;;7.31;51.37;98431.38;5042218;28;20166;-83
2021/11/30 10:41:24;;;;;;;4.28;3.88;;;;;;;6.91;50.34;98382.84;5036164;28;20036;-83
2021/11/30 10:44:03;;;;;;;5.97;3.78;;;;;;;6.98;51.28;98399.47;5043676;28;20112;-83
2021/11/30 10:46:36;;;;;;;6.35;4.03;;;;;;;7.38;50.17;98448.00;5035341;28;20040;-84
2021/11/30 10:49:03;;;;;;;5.50;3.30;;;;;;;6.45;50.34;98287.81;5041709;28;20501;-85
2021/11/30 10:51:44;;;;;;;4.32;3.67;;;;;;;7.31;49.33;98470.75;5033329;28;20040;-83
2021/11/30 10:54:09;;;;;;;4.80;3.90;;;;;;;6.92;50.47;98411.50;5038553;28;20454;-83
2021/11/30 10:56:35;;;;;;;7.53;3.92;;;;;;;6.75;49.21;98356.81;5036738;28;20037;-82
2021/11/30 10:59:00;;;;;;;10.00;3.78;;;;;;;7.10;49.57;98432.13;5042006;28;20021;-84
2021/11/30 11:01:26;;;;;;;4.95;3.22;;;;;;;6.42;50.31;98319.63;5050523;28;20028;-85
2021/11/30 11:04:05;;;;;;;6.60;4.50;;;;;;;6.95;48.69;98420.84;5051008;28;20021;-83
2021/11/30 11:06:31;;;;;;;8.30;4.88;;;;;;;7.19;49.62;98473.03;5053833;28;20425;-84
2021/11/30 11:09:03;;;;;;;6.95;5.57;;;;;;;7.23;49.71;98473.47;5072652;28;20052;-83
2021/11/30 11:11:39;;;;;;;6.65;4.80;;;;;;;7.18;49.66;98492.41;5050850;28;20561;-85
2021/11/30 11:14:16;;;;;;;5.25;4.65;;;;;;;6.25;49.30;98367.00;5044771;28;20025;-84
2021/11/30 11:16:42;;;;;;;6.70;4.38;;;;;;;6.71;49.53;98439.47;5052449;28;20107;-82
2021/11/30 11:19:09;;;;;;;5.28;4.22;;;;;;;6.44;50.05;98378.75;5035281;28;20113;-83
2021/11/30 11:21:38;;;;;;;5.35;4.20;;;;;;;7.17;49.30;98503.91;5037351;28;20087;-83
2021/11/30 11:24:22;;;;;;;5.55;4.82;;;;;;;6.76;48.85;98429.25;5031374;28;20030;-78
2021/11/30 11:26:48;;;;;;;6.10;4.53;;;;;;;6.71;49.65;98444.72;5046136;28;20074;-78
2021/11/30 11:29:18;;;;;;;5.10;4.25;;;;;;;6.89;49.72;98447.78;5048426;28;20464;-78
2021/11/30 11:31:47;;;;;;;9.45;4.72;;;;;;;7.19;49.50;98495.84;5038496;28;20053;-78
2021/11/30 11:34:15;;;;;;;4.88;4.38;;;;;;;7.07;48.78;98492.03;5032093;28;20025;-78
2021/11/30 11:36:44;;;;;;;7.18;5.53;;;;;;;7.01;49.19;98483.91;5032415;28;20034;-78
2021/11/30 11:39:09;;;;;;;7.70;4.72;;;;;;;6.78;49.24;98445.63;5029339;28;20079;-78
2021/11/30 11:41:35;;;;;;;6.35;5.03;;;;;;;7.21;49.03;98515.66;5030627;28;20054;-79
2021/11/30 11:44:00;;;;;;;7.13;5.68;;;;;;;6.88;49.07;98459.28;5040150;28;20029;-77
2021/11/30 11:46:33;;;;;;;8.95;5.85;;;;;;;6.62;49.05;98447.41;5050196;28;20052;-78
2021/11/30 11:49:01;;;;;;;6.53;5.50;;;;;;;6.92;49.37;98498.09;5050293;28;20405;-78
2021/11/30 11:51:47;;;;;;;5.38;4.82;;;;;;;7.13;48.63;98544.63;5050431;28;20029;-78